createdAt,value
2022-09-18T00:00:58.708Z,97541.16
2022-09-18T00:02:00.499Z,97550.97
2022-09-18T00:03:02.295Z,97550.41
2022-09-18T00:04:07.087Z,97556.25
2022-09-18T00:05:09.309Z,97551.44
2022-09-18T00:06:17.107Z,97551.66
2022-09-18T00:07:19.346Z,97493.56
2022-09-18T00:08:21.010Z,97547.31
2022-09-18T00:09:23.179Z,97555.25
2022-09-18T00:10:24.845Z,97548.56
2022-09-18T00:11:29.343Z,97551.22
2022-09-18T00:12:31.208Z,97557.94
2022-09-18T00:13:34.939Z,97546.59
2022-09-18T00:14:36.960Z,97526.00
2022-09-18T00:15:38.776Z,97538.63
2022-09-18T00:16:41.603Z,97536.81
2022-09-18T00:17:43.626Z,97533.63
2022-09-18T00:18:45.818Z,97525.63
2022-09-18T00:19:47.689Z,97541.31
2022-09-18T00:20:49.340Z,97534.66
2022-09-18T00:21:52.230Z,97543.34
2022-09-18T00:22:53.916Z,97544.66
2022-09-18T00:23:58.450Z,97533.25
2022-09-18T00:25:00.309Z,97558.22
2022-09-18T00:26:02.424Z,97546.03
2022-09-18T00:27:04.296Z,97554.41
2022-09-18T00:28:06.018Z,97551.19
2022-09-18T00:29:07.805Z,97540.03
2022-09-18T00:30:10.598Z,97547.91
2022-09-18T00:31:18.458Z,97542.56
2022-09-18T00:32:20.151Z,97522.16
2022-09-18T00:33:21.843Z,97527.16
2022-09-18T00:34:23.498Z,97539.53
2022-09-18T00:35:25.225Z,97525.53
2022-09-18T00:36:27.471Z,97512.88
2022-09-18T00:37:29.316Z,97530.31
2022-09-18T00:38:34.619Z,97547.81
2022-09-18T00:39:36.346Z,97556.84
2022-09-18T00:40:38.914Z,97552.56
2022-09-18T00:41:43.109Z,97560.25
2022-09-18T00:42:45.232Z,97558.66
2022-09-18T00:43:46.945Z,97551.16
2022-09-18T00:44:49.639Z,97549.28
2022-09-18T00:46:08.655Z,97535.06
2022-09-18T00:47:10.298Z,97539.34
2022-09-18T00:48:12.083Z,97538.31
2022-09-18T00:49:27.204Z,97526.44
2022-09-18T00:50:28.920Z,97536.44
2022-09-18T00:51:34.003Z,97550.53
2022-09-18T00:52:47.887Z,97547.00
2022-09-18T00:54:30.052Z,97545.66
2022-09-18T00:55:40.119Z,97554.41
2022-09-18T00:56:42.674Z,97549.34
2022-09-18T00:57:51.420Z,97553.09
2022-09-18T00:58:53.244Z,97553.59
2022-09-18T00:59:55.363Z,97515.47
2022-09-18T01:00:57.202Z,97546.41
2022-09-18T01:02:01.034Z,97548.09
2022-09-18T01:03:02.783Z,97542.69
2022-09-18T01:04:04.509Z,97541.06
2022-09-18T01:05:08.078Z,97542.34
2022-09-18T01:06:28.994Z,97549.28
2022-09-18T01:07:52.435Z,97552.75
2022-09-18T01:09:06.286Z,97548.75
2022-09-18T01:10:21.122Z,97543.69
2022-09-18T01:11:51.134Z,97550.66
2022-09-18T01:12:56.855Z,97549.88
2022-09-18T01:14:25.805Z,97549.16
2022-09-18T01:16:05.078Z,97553.28
2022-09-18T01:17:21.130Z,97560.06
2022-09-18T01:18:38.843Z,97550.81
2022-09-18T01:19:59.180Z,97561.50
2022-09-18T01:21:09.978Z,97565.91
2022-09-18T01:22:33.348Z,97570.72
2022-09-18T01:23:34.941Z,97560.63
2022-09-18T01:25:03.097Z,97562.50
2022-09-18T01:26:14.458Z,97553.22
2022-09-18T01:27:30.762Z,97560.34
2022-09-18T01:28:39.896Z,97557.38
2022-09-18T01:29:57.090Z,97558.19
2022-09-18T01:31:06.385Z,97552.06
2022-09-18T01:32:20.042Z,97556.91
2022-09-18T01:33:28.612Z,97569.19
2022-09-18T01:34:48.649Z,97556.94
2022-09-18T01:35:55.871Z,97550.03
2022-09-18T01:37:13.647Z,97558.56
2022-09-18T01:38:28.691Z,97547.16
2022-09-18T01:39:53.289Z,97563.06
2022-09-18T01:41:14.108Z,97575.06
2022-09-18T01:42:18.971Z,97572.94
2022-09-18T01:43:22.293Z,97565.06
2022-09-18T01:44:29.432Z,97578.94
2022-09-18T01:45:39.253Z,97574.38
2022-09-18T01:46:44.378Z,97578.53
2022-09-18T01:47:55.083Z,97580.69
2022-09-18T01:49:12.908Z,97579.31
2022-09-18T01:50:15.712Z,97579.75
2022-09-18T01:51:22.700Z,97583.47
2022-09-18T01:52:31.232Z,97590.84
2022-09-18T01:53:39.893Z,97583.88
2022-09-18T01:54:45.098Z,97580.09
2022-09-18T01:55:56.003Z,97573.44
2022-09-18T01:57:28.852Z,97576.84
2022-09-18T01:58:34.362Z,97579.81
2022-09-18T02:00:05.024Z,97574.72
2022-09-18T02:01:13.333Z,97572.56
2022-09-18T02:02:29.754Z,97569.63
2022-09-18T02:03:41.501Z,97573.06
2022-09-18T02:04:46.659Z,97570.63
2022-09-18T02:06:16.684Z,97549.34
2022-09-18T02:07:48.543Z,97555.13
2022-09-18T02:08:54.358Z,97550.63
2022-09-18T02:09:58.580Z,97560.69
2022-09-18T02:11:06.670Z,97550.03
2022-09-18T02:12:12.206Z,97565.16
2022-09-18T02:13:17.210Z,97565.16
2022-09-18T02:14:31.959Z,97564.84
2022-09-18T02:15:38.789Z,97565.09
2022-09-18T02:16:46.845Z,97558.34
2022-09-18T02:17:56.587Z,97569.56
2022-09-18T02:19:04.118Z,97564.75
2022-09-18T02:20:21.077Z,97569.03
2022-09-18T02:21:32.839Z,97566.88
2022-09-18T02:22:35.233Z,97575.91
2022-09-18T02:23:39.029Z,97553.81
2022-09-18T02:24:45.941Z,97571.66
2022-09-18T02:25:56.194Z,97571.69
2022-09-18T02:27:00.480Z,97581.38
2022-09-18T02:28:04.304Z,97571.78
2022-09-18T02:29:08.982Z,97579.72
2022-09-18T02:30:12.260Z,97582.91
2022-09-18T02:31:14.473Z,97579.19
2022-09-18T02:32:16.492Z,97585.00
2022-09-18T02:33:26.160Z,97588.94
2022-09-18T02:34:29.499Z,97590.78
2022-09-18T02:35:41.808Z,97591.00
2022-09-18T02:36:43.462Z,97579.16
2022-09-18T02:37:48.204Z,97586.91
2022-09-18T02:38:56.305Z,97585.03
2022-09-18T02:40:16.760Z,97582.34
2022-09-18T02:41:40.542Z,97576.78
2022-09-18T02:42:51.109Z,97576.50
2022-09-18T02:44:07.391Z,97579.41
2022-09-18T02:45:33.199Z,97582.03
2022-09-18T02:46:47.072Z,97590.75
2022-09-18T02:48:07.317Z,97600.63
2022-09-18T02:49:31.851Z,97602.00
2022-09-18T02:50:51.833Z,97616.44
2022-09-18T02:52:16.302Z,97625.75
2022-09-18T02:53:20.691Z,97638.81
2022-09-18T02:55:27.016Z,97639.09
2022-09-18T02:56:41.418Z,97631.56
2022-09-18T02:57:49.581Z,97649.91
2022-09-18T02:59:10.260Z,97644.84
2022-09-18T03:00:17.070Z,97657.75
2022-09-18T03:01:22.124Z,97652.94
2022-09-18T03:02:25.572Z,97650.53
2022-09-18T03:03:30.859Z,97666.56
2022-09-18T03:04:32.505Z,97674.00
2022-09-18T03:05:34.277Z,97685.50
2022-09-18T03:06:35.911Z,97684.69
2022-09-18T03:07:37.885Z,97688.66
2022-09-18T03:08:39.940Z,97689.44
2022-09-18T03:09:42.475Z,97679.44
2022-09-18T03:10:44.132Z,97699.13
2022-09-18T03:11:45.932Z,97702.28
2022-09-18T03:12:47.600Z,97683.69
2022-09-18T03:13:49.325Z,97683.41
2022-09-18T03:14:51.233Z,97708.72
2022-09-18T03:15:55.982Z,97715.41
2022-09-18T03:16:57.749Z,97716.22
2022-09-18T03:17:59.393Z,97721.31
2022-09-18T03:19:01.528Z,97717.31
2022-09-18T03:20:06.636Z,97728.56
2022-09-18T03:21:08.306Z,97722.16
2022-09-18T03:22:10.162Z,97723.97
2022-09-18T03:23:11.884Z,97723.72
2022-09-18T03:24:13.792Z,97726.91
2022-09-18T03:25:15.890Z,97723.16
2022-09-18T03:26:18.349Z,97716.81
2022-09-18T03:27:20.363Z,97724.78
2022-09-18T03:28:22.371Z,97727.72
2022-09-18T03:29:24.036Z,97727.72
2022-09-18T03:30:25.798Z,97738.94
2022-09-18T03:31:27.759Z,97737.56
2022-09-18T03:32:29.476Z,97738.38
2022-09-18T03:33:31.143Z,97716.31
2022-09-18T03:34:32.839Z,97740.69
2022-09-18T03:35:34.574Z,97731.09
2022-09-18T03:36:36.759Z,97748.72
2022-09-18T03:37:38.466Z,97743.88
2022-09-18T03:38:41.103Z,97754.06
2022-09-18T03:39:43.065Z,97749.22
2022-09-18T03:40:47.718Z,97749.75
2022-09-18T03:41:49.970Z,97742.56
2022-09-18T03:42:51.956Z,97749.41
2022-09-18T03:43:53.642Z,97743.84
2022-09-18T03:44:57.603Z,97761.41
2022-09-18T03:45:59.277Z,97759.81
2022-09-18T03:47:01.282Z,97764.88
2022-09-18T03:48:03.306Z,97777.44
2022-09-18T03:49:05.006Z,97781.41
2022-09-18T03:50:07.188Z,97789.72
2022-09-18T03:51:08.966Z,97787.13
2022-09-18T03:52:10.652Z,97784.03
2022-09-18T03:53:12.308Z,97802.91
2022-09-18T03:54:14.774Z,97809.63
2022-09-18T03:55:16.494Z,97804.06
2022-09-18T03:56:18.472Z,97803.38
2022-09-18T03:57:20.153Z,97818.78
2022-09-18T03:58:21.826Z,97821.53
2022-09-18T03:59:23.546Z,97824.50
2022-09-18T04:00:25.737Z,97836.53
2022-09-18T04:01:27.426Z,97836.03
2022-09-18T04:02:29.173Z,97839.28
2022-09-18T04:03:31.137Z,97857.19
2022-09-18T04:04:33.205Z,97847.63
2022-09-18T04:05:35.620Z,97861.06
2022-09-18T04:06:37.574Z,97866.13
2022-09-18T04:07:39.246Z,97872.03
2022-09-18T04:08:41.060Z,97884.88
2022-09-18T04:09:42.795Z,97880.34
2022-09-18T04:10:46.875Z,97882.53
2022-09-18T04:11:48.864Z,97903.09
2022-09-18T04:12:50.506Z,97905.22
2022-09-18T04:13:52.426Z,97911.03
2022-09-18T04:14:55.653Z,97922.25
2022-09-18T04:15:57.399Z,97926.53
2022-09-18T04:16:59.257Z,97930.28
2022-09-18T04:18:01.003Z,97923.88
2022-09-18T04:19:03.009Z,97938.28
2022-09-18T04:20:05.361Z,97951.59
2022-09-18T04:21:07.084Z,97952.63
2022-09-18T04:22:08.749Z,97959.81
2022-09-18T04:23:12.776Z,97960.06
2022-09-18T04:24:14.473Z,97948.34
2022-09-18T04:25:17.379Z,97951.53
2022-09-18T04:26:19.105Z,97961.63
2022-09-18T04:27:20.842Z,97949.94
2022-09-18T04:28:22.647Z,97959.78
2022-09-18T04:29:24.463Z,97950.44
2022-09-18T04:30:26.151Z,97968.53
2022-09-18T04:31:28.181Z,97969.06
2022-09-18T04:32:29.902Z,97977.84
2022-09-18T04:33:31.652Z,97969.59
2022-09-18T04:34:33.355Z,97972.53
2022-09-18T04:35:35.782Z,97974.09
2022-09-18T04:36:37.476Z,97979.72
2022-09-18T04:37:39.183Z,97988.81
2022-09-18T04:38:40.911Z,97935.00
2022-09-18T04:39:42.950Z,97965.66
2022-09-18T04:40:44.608Z,97974.47
2022-09-18T04:41:46.274Z,97984.63
2022-09-18T04:42:47.980Z,97988.88
2022-09-18T04:43:49.659Z,97993.44
2022-09-18T04:44:51.614Z,97991.78
2022-09-18T04:45:54.212Z,97988.38
2022-09-18T04:46:56.243Z,97997.41
2022-09-18T04:47:57.995Z,97980.09
2022-09-18T04:48:59.749Z,97979.84
2022-09-18T04:50:01.505Z,97984.63
2022-09-18T04:51:03.211Z,97990.75
2022-09-18T04:52:04.906Z,98008.06
2022-09-18T04:53:06.672Z,98001.63
2022-09-18T04:54:09.699Z,97990.41
2022-09-18T04:55:11.576Z,97995.44
2022-09-18T04:56:13.248Z,98007.94
2022-09-18T04:57:15.017Z,98002.31
2022-09-18T04:58:18.663Z,98002.81
2022-09-18T04:59:20.457Z,97983.34
2022-09-18T05:00:22.115Z,98002.50
2022-09-18T05:01:23.837Z,98010.75
2022-09-18T05:02:25.558Z,98009.34
2022-09-18T05:03:27.454Z,98011.88
2022-09-18T05:04:29.245Z,98021.66
2022-09-18T05:05:31.369Z,98022.41
2022-09-18T05:06:33.285Z,97980.88
2022-09-18T05:07:35.188Z,98014.81
2022-09-18T05:08:37.382Z,98016.69
2022-09-18T05:09:39.083Z,98027.59
2022-09-18T05:10:42.470Z,98024.44
2022-09-18T05:11:44.216Z,98018.84
2022-09-18T05:12:46.115Z,97993.16
2022-09-18T05:13:52.564Z,98010.47
2022-09-18T05:14:54.231Z,98012.75
2022-09-18T05:15:57.274Z,98015.72
2022-09-18T05:16:59.266Z,98023.22
2022-09-18T05:18:11.086Z,98010.28
2022-09-18T05:19:13.310Z,98014.56
2022-09-18T05:20:15.128Z,98018.28
2022-09-18T05:21:17.030Z,98027.78
2022-09-18T05:22:18.695Z,98022.72
2022-09-18T05:23:20.360Z,98022.72
2022-09-18T05:24:22.018Z,98014.97
2022-09-18T05:25:27.490Z,98030.09
2022-09-18T05:26:31.286Z,98033.22
2022-09-18T05:27:33.293Z,98026.31
2022-09-18T05:28:34.969Z,98023.44
2022-09-18T05:29:37.310Z,98005.69
2022-09-18T05:30:39.144Z,98040.38
2022-09-18T05:31:42.243Z,98035.09
2022-09-18T05:32:44.020Z,98031.91
2022-09-18T05:33:45.712Z,98037.25
2022-09-18T05:34:49.340Z,98019.16
2022-09-18T05:35:54.764Z,98047.44
2022-09-18T05:36:56.467Z,98046.41
2022-09-18T05:37:58.702Z,98044.31
2022-09-18T05:39:00.723Z,98040.59
2022-09-18T05:40:02.664Z,98042.19
2022-09-18T05:41:04.811Z,98048.06
2022-09-18T05:42:06.707Z,98041.66
2022-09-18T05:43:09.001Z,98040.06
2022-09-18T05:44:10.842Z,98035.28
2022-09-18T05:45:13.543Z,98044.06
2022-09-18T05:46:15.502Z,98036.31
2022-09-18T05:47:17.366Z,98040.59
2022-09-18T05:48:19.170Z,98061.41
2022-09-18T05:49:25.139Z,98048.06
2022-09-18T05:50:28.767Z,98047.25
2022-09-18T05:51:35.445Z,98041.66
2022-09-18T05:52:37.139Z,98039.25
2022-09-18T05:53:38.810Z,98044.34
2022-09-18T05:54:40.462Z,98043.53
2022-09-18T05:55:43.060Z,98051.81
2022-09-18T05:56:44.977Z,98069.66
2022-09-18T05:57:46.675Z,98071.78
2022-09-18T05:58:48.337Z,98058.47
2022-09-18T05:59:49.982Z,98055.53
2022-09-18T06:00:52.570Z,98066.44
2022-09-18T06:01:54.724Z,98053.88
2022-09-18T06:02:57.978Z,98070.41
2022-09-18T06:03:59.855Z,98069.59
2022-09-18T06:05:01.548Z,98079.41
2022-09-18T06:06:03.373Z,98076.16
2022-09-18T06:07:05.523Z,98068.38
2022-09-18T06:08:10.455Z,98071.25
2022-09-18T06:09:12.255Z,98068.50
2022-09-18T06:10:14.224Z,98089.34
2022-09-18T06:11:15.928Z,98078.47
2022-09-18T06:12:17.638Z,98069.66
2022-09-18T06:13:19.429Z,98081.34
2022-09-18T06:14:21.105Z,98072.78
2022-09-18T06:15:22.774Z,98070.03
2022-09-18T06:16:24.517Z,98079.91
2022-09-18T06:17:26.267Z,98083.38
2022-09-18T06:18:28.136Z,98067.47
2022-09-18T06:19:30.137Z,98084.81
2022-09-18T06:20:31.803Z,98092.03
2022-09-18T06:21:33.513Z,98078.47
2022-09-18T06:22:36.558Z,98081.94
2022-09-18T06:23:38.298Z,98081.41
2022-09-18T06:24:39.950Z,98086.44
2022-09-18T06:25:41.602Z,98075.00
2022-09-18T06:26:43.312Z,98093.16
2022-09-18T06:27:45.286Z,98077.88
2022-09-18T06:28:47.166Z,98098.56
2022-09-18T06:29:48.852Z,98093.13
2022-09-18T06:30:50.497Z,98107.00
2022-09-18T06:31:52.485Z,98102.63
2022-09-18T06:32:54.892Z,98122.75
2022-09-18T06:33:56.889Z,98107.78
2022-09-18T06:34:58.962Z,98108.56
2022-09-18T06:36:01.543Z,98117.66
2022-09-18T06:37:03.906Z,98115.81
2022-09-18T06:38:07.111Z,98136.59
2022-09-18T06:39:08.771Z,98137.56
2022-09-18T06:40:10.696Z,98142.47
2022-09-18T06:41:12.409Z,98132.81
2022-09-18T06:42:14.116Z,98121.59
2022-09-18T06:43:16.012Z,98137.06
2022-09-18T06:44:17.691Z,98133.81
2022-09-18T06:45:19.663Z,98147.19
2022-09-18T06:46:21.597Z,98142.13
2022-09-18T06:47:23.383Z,98131.13
2022-09-18T06:48:25.873Z,98152.47
2022-09-18T06:49:27.597Z,98142.25
2022-09-18T06:50:29.979Z,98158.13
2022-09-18T06:51:31.661Z,98161.03
2022-09-18T06:52:33.403Z,98141.53
2022-09-18T06:53:35.202Z,98140.09
2022-09-18T06:54:36.878Z,98138.06
2022-09-18T06:55:38.920Z,98144.41
2022-09-18T06:56:41.485Z,98147.31
2022-09-18T06:57:43.261Z,98146.16
2022-09-18T06:58:45.376Z,98133.06
2022-09-18T06:59:47.089Z,98143.78
2022-09-18T07:00:48.850Z,98160.38
2022-09-18T07:01:50.753Z,98155.53
2022-09-18T07:02:56.356Z,98142.13
2022-09-18T07:03:58.200Z,98127.00
2022-09-18T07:05:00.914Z,98156.00
2022-09-18T07:06:02.650Z,98153.69
2022-09-18T07:07:04.431Z,98171.28
2022-09-18T07:08:06.124Z,98173.03
2022-09-18T07:09:07.784Z,98164.13
2022-09-18T07:10:10.135Z,98170.78
2022-09-18T07:11:11.853Z,98170.72
2022-09-18T07:12:13.535Z,98180.06
2022-09-18T07:13:15.430Z,98184.91
2022-09-18T07:14:17.089Z,98185.31
2022-09-18T07:15:20.012Z,98167.66
2022-09-18T07:16:21.787Z,98167.78
2022-09-18T07:17:26.395Z,98186.13
2022-09-18T07:18:28.377Z,98181.63
2022-09-18T07:19:30.163Z,98190.44
2022-09-18T07:20:32.161Z,98193.38
2022-09-18T07:21:34.088Z,98188.44
2022-09-18T07:22:35.776Z,98171.50
2022-09-18T07:23:37.494Z,98194.22
2022-09-18T07:24:39.190Z,98184.84
2022-09-18T07:25:40.872Z,98197.53
2022-09-18T07:26:42.623Z,98196.69
2022-09-18T07:27:44.651Z,98202.47
2022-09-18T07:28:46.497Z,98194.06
2022-09-18T07:29:48.343Z,98198.75
2022-09-18T07:30:49.991Z,98210.06
2022-09-18T07:31:51.663Z,98216.69
2022-09-18T07:32:53.330Z,98199.19
2022-09-18T07:33:55.451Z,98196.81
2022-09-18T07:34:57.118Z,98199.88
2022-09-18T07:36:02.705Z,98169.13
2022-09-18T07:37:04.411Z,98202.84
2022-09-18T07:38:07.653Z,98202.03
2022-09-18T07:39:09.321Z,98229.75
2022-09-18T07:40:12.878Z,98227.44
2022-09-18T07:41:14.629Z,98227.63
2022-09-18T07:42:16.292Z,98244.59
2022-09-18T07:43:18.096Z,98242.00
2022-09-18T07:44:19.784Z,98229.75
2022-09-18T07:45:21.445Z,98234.88
2022-09-18T07:46:23.255Z,98253.38
2022-09-18T07:47:25.488Z,98248.31
2022-09-18T07:48:27.893Z,98248.63
2022-09-18T07:49:29.826Z,98233.94
2022-09-18T07:50:32.150Z,98244.56
2022-09-18T07:51:33.901Z,98245.09
2022-09-18T07:52:35.557Z,98241.41
2022-09-18T07:53:37.769Z,98242.16
2022-09-18T07:54:39.432Z,98254.03
2022-09-18T07:55:45.417Z,98253.47
2022-09-18T07:56:47.291Z,98256.19
2022-09-18T07:58:00.697Z,98258.41
2022-09-18T07:59:02.423Z,98247.00
2022-09-18T08:00:04.502Z,98246.13
2022-09-18T08:01:07.084Z,98232.78
2022-09-18T08:02:08.927Z,98250.34
2022-09-18T08:03:14.435Z,98250.47
2022-09-18T08:04:16.330Z,98251.47
2022-09-18T08:05:18.062Z,98247.66
2022-09-18T08:06:20.457Z,98232.81
2022-09-18T08:07:24.659Z,98231.31
2022-09-18T08:08:26.551Z,98228.44
2022-09-18T08:09:28.280Z,98227.91
2022-09-18T08:10:30.325Z,98246.69
2022-09-18T08:11:32.095Z,98233.50
2022-09-18T08:12:34.107Z,98233.31
2022-09-18T08:13:35.833Z,98236.28
2022-09-18T08:14:37.482Z,98240.38
2022-09-18T08:15:41.592Z,98252.50
2022-09-18T08:16:43.436Z,98247.25
2022-09-18T08:17:46.747Z,98242.75
2022-09-18T08:18:49.238Z,98242.28
2022-09-18T08:19:51.431Z,98233.78
2022-09-18T08:20:56.526Z,98198.03
2022-09-18T08:21:58.405Z,98226.06
2022-09-18T08:23:02.152Z,98231.19
2022-09-18T08:24:04.195Z,98240.00
2022-09-18T08:25:06.597Z,98238.75
2022-09-18T08:26:08.733Z,98250.19
2022-09-18T08:27:10.385Z,98248.59
2022-09-18T08:28:12.047Z,98247.31
2022-09-18T08:29:19.260Z,98271.63
2022-09-18T08:30:21.137Z,98275.06
2022-09-18T08:31:22.885Z,98287.66
2022-09-18T08:32:24.621Z,98270.06
2022-09-18T08:33:26.553Z,98266.31
2022-09-18T08:34:28.661Z,98265.22
2022-09-18T08:35:32.144Z,98247.34
2022-09-18T08:36:34.325Z,98264.16
2022-09-18T08:37:36.620Z,98264.41
2022-09-18T08:38:38.391Z,98267.09
2022-09-18T08:39:40.095Z,98271.34
2022-09-18T08:40:50.805Z,98276.97
2022-09-18T08:42:14.153Z,98268.94
2022-09-18T08:43:21.848Z,98287.63
2022-09-18T08:44:45.264Z,98282.53
2022-09-18T08:46:02.826Z,98281.22
2022-09-18T08:47:15.513Z,98291.88
2022-09-18T08:48:24.016Z,98292.97
2022-09-18T08:49:33.085Z,98293.47
2022-09-18T08:50:39.337Z,98285.47
2022-09-18T08:51:58.991Z,98286.28
2022-09-18T08:53:10.887Z,98264.94
2022-09-18T08:54:23.318Z,98300.16
2022-09-18T08:55:30.153Z,98296.38
2022-09-18T08:56:34.032Z,98290.28
2022-09-18T08:57:49.773Z,98291.88
2022-09-18T08:59:00.327Z,98305.75
2022-09-18T09:00:12.957Z,98293.19
2022-09-18T09:01:19.630Z,98280.13
2022-09-18T09:02:30.672Z,98296.16
2022-09-18T09:03:44.350Z,98295.63
2022-09-18T09:04:46.237Z,98289.22
2022-09-18T09:06:32.706Z,98293.50
2022-09-18T09:08:11.683Z,98291.09
2022-09-18T09:10:03.751Z,98299.63
2022-09-18T09:11:31.421Z,98298.81
2022-09-18T09:12:33.057Z,98295.09
2022-09-18T09:13:57.314Z,98299.38
2022-09-18T09:15:01.719Z,98302.84
2022-09-18T09:16:34.208Z,98306.84
2022-09-18T09:18:08.037Z,98311.66
2022-09-18T09:19:41.769Z,98308.72
2022-09-18T09:20:52.622Z,98303.66
2022-09-18T09:22:07.971Z,98313.53
2022-09-18T09:23:54.557Z,98307.13
2022-09-18T09:25:25.598Z,98315.97
2022-09-18T09:26:28.071Z,98304.47
2022-09-18T09:27:37.377Z,98330.66
2022-09-18T09:29:00.663Z,98311.16
2022-09-18T09:30:07.364Z,98315.16
2022-09-18T09:31:11.010Z,98318.13
2022-09-18T09:32:36.091Z,98313.81
2022-09-18T09:33:50.000Z,98318.91
2022-09-18T09:35:01.150Z,98327.44
2022-09-18T09:36:13.817Z,98313.81
2022-09-18T09:37:22.330Z,98327.19
2022-09-18T09:38:53.029Z,98323.19
2022-09-18T09:40:00.323Z,98327.16
2022-09-18T09:41:27.500Z,98325.59
2022-09-18T09:42:39.949Z,98328.25
2022-09-18T09:43:55.108Z,98330.09
2022-09-18T09:44:59.915Z,98316.97
2022-09-18T09:46:11.776Z,98325.53
2022-09-18T09:47:20.070Z,98341.03
2022-09-18T09:48:35.086Z,98324.47
2022-09-18T09:49:50.925Z,98318.38
2022-09-18T09:50:55.605Z,98323.16
2022-09-18T09:52:06.946Z,98328.75
2022-09-18T09:53:12.855Z,98334.63
2022-09-18T09:54:14.628Z,98307.41
2022-09-18T09:55:29.981Z,98328.75
2022-09-18T09:56:49.736Z,98330.63
2022-09-18T09:57:54.204Z,98320.22
2022-09-18T09:59:08.781Z,98318.59
2022-09-18T10:00:18.015Z,98327.38
2022-09-18T10:01:28.545Z,98317.72
2022-09-18T10:03:00.342Z,98325.50
2022-09-18T10:04:23.642Z,98319.31
2022-09-18T10:05:50.335Z,98321.72
2022-09-18T10:07:16.808Z,98303.22
2022-09-18T10:08:31.132Z,98327.91
2022-09-18T10:10:02.880Z,98315.09
2022-09-18T10:11:11.426Z,98317.03
2022-09-18T10:12:32.025Z,98330.03
2022-09-18T10:13:40.759Z,98323.53
2022-09-18T10:14:46.555Z,98328.59
2022-09-18T10:15:51.844Z,98311.94
2022-09-18T10:16:56.729Z,98328.88
2022-09-18T10:18:02.009Z,98316.91
2022-09-18T10:19:04.671Z,98318.16
2022-09-18T10:20:07.353Z,98319.63
2022-09-18T10:21:21.272Z,98310.44
2022-09-18T10:22:23.766Z,98308.34
2022-09-18T10:23:33.981Z,98310.53
2022-09-18T10:25:01.624Z,98317.81
2022-09-18T10:26:03.315Z,98309.47
2022-09-18T10:27:13.961Z,98316.84
2022-09-18T10:28:16.132Z,98304.59
2022-09-18T10:29:18.649Z,98315.97
2022-09-18T10:30:20.428Z,98310.38
2022-09-18T10:31:22.177Z,98316.34
2022-09-18T10:32:38.103Z,98309.97
2022-09-18T10:33:45.263Z,98318.31
2022-09-18T10:34:49.875Z,98311.09
2022-09-18T10:35:54.179Z,98321.91
2022-09-18T10:36:55.955Z,98312.72
2022-09-18T10:37:59.361Z,98313.00
2022-09-18T10:39:01.301Z,98324.81
2022-09-18T10:40:04.564Z,98319.31
2022-09-18T10:41:11.333Z,98322.16
2022-09-18T10:42:18.349Z,98319.63
2022-09-18T10:43:20.964Z,98321.56
2022-09-18T10:44:31.451Z,98303.81
2022-09-18T10:45:41.931Z,98324.06
2022-09-18T10:46:57.194Z,98334.41
2022-09-18T10:48:13.873Z,98319.44
2022-09-18T10:49:23.030Z,98325.94
2022-09-18T10:50:24.695Z,98316.38
2022-09-18T10:51:28.893Z,98313.59
2022-09-18T10:52:40.278Z,98321.38
2022-09-18T10:53:42.728Z,98315.47
2022-09-18T10:56:15.161Z,98334.91
2022-09-18T10:57:48.954Z,98335.31
2022-09-18T10:58:50.645Z,98332.69
2022-09-18T10:59:52.301Z,98324.41
2022-09-18T11:00:58.777Z,98340.84
2022-09-18T11:02:04.159Z,98344.25
2022-09-18T11:03:23.587Z,98343.03
2022-09-18T11:04:27.599Z,98323.91
2022-09-18T11:05:30.850Z,98338.22
2022-09-18T11:06:35.872Z,98337.50
2022-09-18T11:08:46.750Z,98331.31
2022-09-18T11:09:49.110Z,98334.00
2022-09-18T11:10:55.551Z,98330.44
2022-09-18T11:11:57.358Z,98329.31
2022-09-18T11:13:02.475Z,98341.28
2022-09-18T11:14:06.637Z,98344.06
2022-09-18T11:15:17.330Z,98332.22
2022-09-18T11:16:28.124Z,98325.84
2022-09-18T11:17:33.663Z,98329.63
2022-09-18T11:18:35.403Z,98339.38
2022-09-18T11:19:39.256Z,98329.09
2022-09-18T11:20:43.924Z,98323.72
2022-09-18T11:21:47.096Z,98346.75
2022-09-18T11:22:49.062Z,98338.44
2022-09-18T11:24:02.543Z,98317.78
2022-09-18T11:25:15.302Z,98334.13
2022-09-18T11:26:28.476Z,98338.63
2022-09-18T11:27:44.760Z,98343.81
2022-09-18T11:29:20.556Z,98339.09
2022-09-18T11:30:31.069Z,98339.94
2022-09-18T11:31:43.415Z,98350.16
2022-09-18T11:32:46.911Z,98332.72
2022-09-18T11:33:55.786Z,98352.91
2022-09-18T11:35:02.075Z,98323.53
2022-09-18T11:36:08.020Z,98347.75
2022-09-18T11:37:14.213Z,98338.63
2022-09-18T11:38:20.256Z,98339.72
2022-09-18T11:39:27.519Z,98342.63
2022-09-18T11:40:33.888Z,98336.56
2022-09-18T11:41:39.254Z,98336.78
2022-09-18T11:42:46.104Z,98330.56
2022-09-18T11:44:00.615Z,98337.81
2022-09-18T11:45:38.683Z,98342.16
2022-09-18T11:46:40.315Z,98348.06
2022-09-18T11:47:47.670Z,98348.63
2022-09-18T11:49:03.782Z,98338.91
2022-09-18T11:50:18.029Z,98336.06
2022-09-18T11:51:31.249Z,98339.69
2022-09-18T11:52:38.665Z,98322.59
2022-09-18T11:53:44.555Z,98346.38
2022-09-18T11:54:52.841Z,98321.34
2022-09-18T11:56:03.797Z,98331.44
2022-09-18T11:57:16.797Z,98353.41
2022-09-18T11:58:26.329Z,98333.72
2022-09-18T11:59:49.643Z,98336.25
2022-09-18T12:01:05.267Z,98339.22
2022-09-18T12:02:22.997Z,98333.97
2022-09-18T12:03:30.484Z,98336.56
2022-09-18T12:04:53.169Z,98351.53
2022-09-18T12:06:04.026Z,98340.19
2022-09-18T12:07:38.720Z,98349.56
2022-09-18T12:08:43.238Z,98349.28
2022-09-18T12:09:56.945Z,98346.59
2022-09-18T12:11:10.941Z,98356.00
2022-09-18T12:12:29.706Z,98341.63
2022-09-18T12:13:45.435Z,98347.22
2022-09-18T12:15:03.470Z,98339.47
2022-09-18T12:16:14.231Z,98346.19
2022-09-18T12:17:23.887Z,98312.28
2022-09-18T12:18:31.332Z,98328.94
2022-09-18T12:19:38.836Z,98353.06
2022-09-18T12:20:45.598Z,98348.25
2022-09-18T12:22:01.383Z,98350.56
2022-09-18T12:23:03.494Z,98340.66
2022-09-18T12:24:11.790Z,98351.38
2022-09-18T12:25:15.831Z,98346.81
2022-09-18T12:26:30.379Z,98343.31
2022-09-18T12:27:43.618Z,98357.25
2022-09-18T12:28:57.322Z,98356.25
2022-09-18T12:30:17.640Z,98353.63
2022-09-18T12:31:40.285Z,98345.88
2022-09-18T12:32:47.752Z,98360.28
2022-09-18T12:34:01.604Z,98366.97
2022-09-18T12:35:15.424Z,98358.41
2022-09-18T12:36:41.493Z,98359.69
2022-09-18T12:37:58.226Z,98354.91
2022-09-18T12:39:19.810Z,98362.69
2022-09-18T12:40:27.536Z,98373.69
2022-09-18T12:41:56.870Z,98365.19
2022-09-18T12:43:10.842Z,98365.31
2022-09-18T12:44:12.456Z,98365.34
2022-09-18T12:45:32.714Z,98373.94
2022-09-18T12:46:37.067Z,98361.19
2022-09-18T12:47:41.654Z,98364.19
2022-09-18T12:49:01.675Z,98360.09
2022-09-18T12:50:12.261Z,98364.38
2022-09-18T12:51:26.351Z,98370.53
2022-09-18T12:53:08.716Z,98368.59
2022-09-18T12:54:11.342Z,98360.78
2022-09-18T12:55:47.527Z,98356.31
2022-09-18T12:57:21.793Z,98371.75
2022-09-18T12:58:29.247Z,98379.00
2022-09-18T12:59:54.238Z,98376.56
2022-09-18T13:01:02.146Z,98372.50
2022-09-18T13:02:20.953Z,98358.78
2022-09-18T13:03:33.569Z,98366.28
2022-09-18T13:04:46.831Z,98373.28
2022-09-18T13:06:13.670Z,98368.94
2022-09-18T13:07:25.264Z,98373.44
2022-09-18T13:08:32.671Z,98370.47
2022-09-18T13:09:50.619Z,98356.66
2022-09-18T13:11:09.792Z,98378.63
2022-09-18T13:12:28.690Z,98386.69